Startpagina
METAR-TAF:

METAR-TAF

Vliegvelden :

Luchthaven Prins Said Ibrahim

Moroni, Comoren

breedte: 11-32S, lengte: 043-16E, hoogte: 29 m

METAR: ontbreekt

Tijdstip: 07:48 (04:48 UTC)

Verwachting

Dit bericht is 11 uur en het 48 minuten geleden gemaakt, om 17:00 UTC
Verwachting geldig van 12 om 18 UTC tot 13 om 24 UTC
Wind 8 kt uit het oostzuidoosten
Zicht 10 km of meer
Weinig wolken op 2000 ft
Wijzigt naar
van 13 om 05 UTC tot 13 om 07 UTC
Wind 15 kt uit het zuidzuidwesten
Wijzigt naar
van 13 om 16 UTC tot 13 om 18 UTC
Wind 6 kt uit het oostzuidoosten

TAF: FMCH 121700Z 1218/1324 12008KT 9999 FEW020 BECMG 1305/1307 21015KT BECMG 1316/1318 12006KT

Waarnemingen en weersverwachtingen van meer dan 4000 vliegvelden (METAR en TAF).

De beschikbare stations zijn de gele en rode punten op de kaart.

Ga met uw muis naar het station om de naam te zien.

Klik dan om waarnemingen en weersverwachtingen te zien.

kaart wijzigen: klik op de groene knoppen met een zwart kruis om in te zoomen, op de groene knop met een streepje om uit te zoomen of op de groene pijlen voor aangrenzende kaarten.


METAR-TAF: